sensor_id;sensor_type;location;lat;lon;timestamp;pressure;altitude;pressure_sealevel;temperature;humidity
77161;BME280;66135;0.000;0.000;2024-01-06T00:00:43;100173.91;;;18.65;63.13
77161;BME280;66135;0.000;0.000;2024-01-06T00:03:11;100177.03;;;18.62;63.15
77161;BME280;66135;0.000;0.000;2024-01-06T00:05:36;100170.75;;;18.61;62.92
77161;BME280;66135;0.000;0.000;2024-01-06T00:08:01;100179.28;;;18.58;63.14
77161;BME280;66135;0.000;0.000;2024-01-06T00:10:26;100187.22;;;18.60;62.96
77161;BME280;66135;0.000;0.000;2024-01-06T00:12:52;100183.00;;;18.57;63.07
77161;BME280;66135;0.000;0.000;2024-01-06T00:15:17;100191.34;;;18.56;63.02
77161;BME280;66135;0.000;0.000;2024-01-06T00:17:42;100201.34;;;18.55;63.08
77161;BME280;66135;0.000;0.000;2024-01-06T00:20:08;100199.88;;;18.53;62.94
77161;BME280;66135;0.000;0.000;2024-01-06T00:22:33;100204.66;;;18.51;63.11
77161;BME280;66135;0.000;0.000;2024-01-06T00:24:59;100210.94;;;18.51;62.95
77161;BME280;66135;0.000;0.000;2024-01-06T00:27:25;100202.78;;;18.51;62.85
77161;BME280;66135;0.000;0.000;2024-01-06T00:29:50;100203.81;;;18.50;62.90
77161;BME280;66135;0.000;0.000;2024-01-06T00:32:15;100207.38;;;18.51;62.86
77161;BME280;66135;0.000;0.000;2024-01-06T00:34:41;100213.66;;;18.51;62.65
77161;BME280;66135;0.000;0.000;2024-01-06T00:37:06;100203.81;;;18.50;62.51
77161;BME280;66135;0.000;0.000;2024-01-06T00:39:32;100214.66;;;18.50;62.79
77161;BME280;66135;0.000;0.000;2024-01-06T00:41:57;100210.06;;;18.51;62.51
77161;BME280;66135;0.000;0.000;2024-01-06T00:44:22;100215.91;;;18.48;62.58
77161;BME280;66135;0.000;0.000;2024-01-06T00:46:48;100221.31;;;18.48;62.66
77161;BME280;66135;0.000;0.000;2024-01-06T00:49:13;100215.44;;;18.44;62.95
77161;BME280;66135;0.000;0.000;2024-01-06T00:51:38;100216.44;;;18.43;62.53
77161;BME280;66135;0.000;0.000;2024-01-06T00:54:04;100212.06;;;18.42;62.20
77161;BME280;66135;0.000;0.000;2024-01-06T00:56:29;100216.44;;;18.43;62.65
77161;BME280;66135;0.000;0.000;2024-01-06T00:58:54;100221.22;;;18.41;62.63
77161;BME280;66135;0.000;0.000;2024-01-06T01:01:20;100223.13;;;18.41;62.42
77161;BME280;66135;0.000;0.000;2024-01-06T01:03:46;100217.22;;;18.37;62.57
77161;BME280;66135;0.000;0.000;2024-01-06T01:06:11;100231.59;;;18.38;62.65
77161;BME280;66135;0.000;0.000;2024-01-06T01:08:36;100219.25;;;18.35;62.36
77161;BME280;66135;0.000;0.000;2024-01-06T01:11:02;100237.19;;;18.36;62.42
77161;BME280;66135;0.000;0.000;2024-01-06T01:13:27;100239.44;;;18.33;62.54
77161;BME280;66135;0.000;0.000;2024-01-06T01:15:53;100241.50;;;18.31;62.41
77161;BME280;66135;0.000;0.000;2024-01-06T01:18:18;100246.94;;;18.31;62.59
77161;BME280;66135;0.000;0.000;2024-01-06T01:20:44;100241.91;;;18.28;62.71
77161;BME280;66135;0.000;0.000;2024-01-06T01:23:09;100253.59;;;18.28;62.59
77161;BME280;66135;0.000;0.000;2024-01-06T01:25:35;100249.19;;;18.27;62.41
77161;BME280;66135;0.000;0.000;2024-01-06T01:28:00;100262.94;;;18.26;62.76
77161;BME280;66135;0.000;0.000;2024-01-06T01:30:25;100259.22;;;18.27;62.37
77161;BME280;66135;0.000;0.000;2024-01-06T01:32:51;100260.41;;;18.24;62.47
77161;BME280;66135;0.000;0.000;2024-01-06T01:35:16;100267.69;;;18.24;62.63
77161;BME280;66135;0.000;0.000;2024-01-06T01:37:41;100271.25;;;18.24;62.42
77161;BME280;66135;0.000;0.000;2024-01-06T01:40:07;100277.91;;;18.22;62.39
77161;BME280;66135;0.000;0.000;2024-01-06T01:42:33;100267.25;;;18.20;62.69
77161;BME280;66135;0.000;0.000;2024-01-06T01:44:59;100274.75;;;18.18;62.18
77161;BME280;66135;0.000;0.000;2024-01-06T01:47:25;100274.75;;;18.18;62.48
77161;BME280;66135;0.000;0.000;2024-01-06T01:49:51;100272.84;;;18.19;62.44
77161;BME280;66135;0.000;0.000;2024-01-06T01:52:17;100274.91;;;18.17;62.53
77161;BME280;66135;0.000;0.000;2024-01-06T01:54:45;100284.28;;;18.14;62.34
77161;BME280;66135;0.000;0.000;2024-01-06T01:57:11;100286.31;;;18.12;62.47
77161;BME280;66135;0.000;0.000;2024-01-06T01:59:38;100288.19;;;18.12;62.51
77161;BME280;66135;0.000;0.000;2024-01-06T02:02:04;100290.75;;;18.13;62.63
77161;BME280;66135;0.000;0.000;2024-01-06T02:04:30;100293.81;;;18.10;62.61
77161;BME280;66135;0.000;0.000;2024-01-06T02:06:55;100288.38;;;18.10;62.61
77161;BME280;66135;0.000;0.000;2024-01-06T02:09:21;100294.00;;;18.09;62.58
77161;BME280;66135;0.000;0.000;2024-01-06T02:11:48;100298.56;;;18.08;62.63
77161;BME280;66135;0.000;0.000;2024-01-06T02:14:13;100312.13;;;18.08;62.24
77161;BME280;66135;0.000;0.000;2024-01-06T02:16:39;100302.31;;;18.07;62.48
77161;BME280;66135;0.000;0.000;2024-01-06T02:19:05;100305.41;;;18.04;62.65
77161;BME280;66135;0.000;0.000;2024-01-06T02:21:35;100314.56;;;18.03;62.59
77161;BME280;66135;0.000;0.000;2024-01-06T02:24:04;100317.25;;;18.03;62.70
77161;BME280;66135;0.000;0.000;2024-01-06T02:26:30;100331.84;;;18.02;62.46
77161;BME280;66135;0.000;0.000;2024-01-06T02:28:55;100333.72;;;18.02;62.58
77161;BME280;66135;0.000;0.000;2024-01-06T02:31:20;100334.75;;;18.01;62.64
77161;BME280;66135;0.000;0.000;2024-01-06T02:33:46;100330.53;;;17.98;62.76
77161;BME280;66135;0.000;0.000;2024-01-06T02:36:12;100342.41;;;17.97;62.49
77161;BME280;66135;0.000;0.000;2024-01-06T02:38:37;100342.41;;;17.97;62.92
77161;BME280;66135;0.000;0.000;2024-01-06T02:41:03;100341.75;;;17.95;62.44
77161;BME280;66135;0.000;0.000;2024-01-06T02:43:28;100351.56;;;17.96;62.63
77161;BME280;66135;0.000;0.000;2024-01-06T02:45:54;100353.59;;;17.94;62.31
77161;BME280;66135;0.000;0.000;2024-01-06T02:48:19;100363.63;;;17.93;62.50
77161;BME280;66135;0.000;0.000;2024-01-06T02:50:44;100370.06;;;17.92;62.48
77161;BME280;66135;0.000;0.000;2024-01-06T02:53:10;100381.75;;;17.93;62.45
77161;BME280;66135;0.000;0.000;2024-01-06T02:55:37;100387.34;;;17.91;62.54
77161;BME280;66135;0.000;0.000;2024-01-06T02:58:03;100388.53;;;17.89;62.48
77161;BME280;66135;0.000;0.000;2024-01-06T03:00:29;100386.69;;;17.89;62.85
77161;BME280;66135;0.000;0.000;2024-01-06T03:02:54;100396.88;;;17.87;62.56
77161;BME280;66135;0.000;0.000;2024-01-06T03:05:19;100392.50;;;17.86;62.77
77161;BME280;66135;0.000;0.000;2024-01-06T03:07:45;100394.16;;;17.87;62.76
77161;BME280;66135;0.000;0.000;2024-01-06T03:10:10;100397.25;;;17.84;62.45
77161;BME280;66135;0.000;0.000;2024-01-06T03:12:35;100405.19;;;17.86;62.66
77161;BME280;66135;0.000;0.000;2024-01-06T03:15:01;100405.56;;;17.83;62.47
77161;BME280;66135;0.000;0.000;2024-01-06T03:17:26;100411.97;;;17.82;62.44
77161;BME280;66135;0.000;0.000;2024-01-06T03:19:54;100414.06;;;17.80;62.57
77161;BME280;66135;0.000;0.000;2024-01-06T03:22:19;100415.91;;;17.79;62.51
77161;BME280;66135;0.000;0.000;2024-01-06T03:24:45;100409.66;;;17.79;62.63
77161;BME280;66135;0.000;0.000;2024-01-06T03:27:10;100421.53;;;17.78;62.58
77161;BME280;66135;0.000;0.000;2024-01-06T03:29:35;100426.09;;;17.77;62.73
77161;BME280;66135;0.000;0.000;2024-01-06T03:32:01;100419.81;;;17.77;62.57
77161;BME280;66135;0.000;0.000;2024-01-06T03:34:26;100423.75;;;17.74;62.60
77161;BME280;66135;0.000;0.000;2024-01-06T03:36:52;100426.47;;;17.74;62.66
77161;BME280;66135;0.000;0.000;2024-01-06T03:39:17;100431.03;;;17.74;62.92
77161;BME280;66135;0.000;0.000;2024-01-06T03:41:42;100433.75;;;17.74;62.85
77161;BME280;66135;0.000;0.000;2024-01-06T03:44:08;100438.50;;;17.72;62.61
77161;BME280;66135;0.000;0.000;2024-01-06T03:46:34;100442.06;;;17.72;62.72
77161;BME280;66135;0.000;0.000;2024-01-06T03:49:00;100440.34;;;17.71;62.55
77161;BME280;66135;0.000;0.000;2024-01-06T03:51:25;100448.66;;;17.70;62.73
77161;BME280;66135;0.000;0.000;2024-01-06T03:53:50;100448.66;;;17.70;62.75
77161;BME280;66135;0.000;0.000;2024-01-06T03:56:16;100455.13;;;17.69;62.87
77161;BME280;66135;0.000;0.000;2024-01-06T03:58:41;100449.03;;;17.67;62.76
77161;BME280;66135;0.000;0.000;2024-01-06T04:01:06;100455.50;;;17.66;62.58
77161;BME280;66135;0.000;0.000;2024-01-06T04:03:32;100459.22;;;17.65;62.83
77161;BME280;66135;0.000;0.000;2024-01-06T04:05:57;100453.13;;;17.63;62.74
77161;BME280;66135;0.000;0.000;2024-01-06T04:08:22;100459.41;;;17.63;62.53
77161;BME280;66135;0.000;0.000;2024-01-06T04:10:48;100464.81;;;17.63;62.69
77161;BME280;66135;0.000;0.000;2024-01-06T04:13:15;100470.41;;;17.62;62.50
77161;BME280;66135;0.000;0.000;2024-01-06T04:15:41;100463.97;;;17.63;62.76
77161;BME280;66135;0.000;0.000;2024-01-06T04:18:06;100472.25;;;17.61;62.71
77161;BME280;66135;0.000;0.000;2024-01-06T04:20:32;100470.59;;;17.60;62.66
77161;BME280;66135;0.000;0.000;2024-01-06T04:23:00;100469.06;;;17.58;62.68
77161;BME280;66135;0.000;0.000;2024-01-06T04:25:25;100476.19;;;17.59;62.66
77161;BME280;66135;0.000;0.000;2024-01-06T04:27:51;100481.75;;;17.57;62.64
77161;BME280;66135;0.000;0.000;2024-01-06T04:30:17;100490.94;;;17.56;62.69
77161;BME280;66135;0.000;0.000;2024-01-06T04:32:43;100500.91;;;17.56;62.65
77161;BME280;66135;0.000;0.000;2024-01-06T04:35:09;100490.25;;;17.54;62.58
77161;BME280;66135;0.000;0.000;2024-01-06T04:37:35;100493.81;;;17.55;62.99
77161;BME280;66135;0.000;0.000;2024-01-06T04:40:00;100493.81;;;17.55;62.80
77161;BME280;66135;0.000;0.000;2024-01-06T04:42:25;100500.28;;;17.54;62.72
77161;BME280;66135;0.000;0.000;2024-01-06T04:44:51;100502.13;;;17.53;63.00
77161;BME280;66135;0.000;0.000;2024-01-06T04:47:16;100502.31;;;17.52;62.73
77161;BME280;66135;0.000;0.000;2024-01-06T04:49:42;100509.41;;;17.53;62.77
77161;BME280;66135;0.000;0.000;2024-01-06T04:52:08;100508.72;;;17.51;62.63
77161;BME280;66135;0.000;0.000;2024-01-06T04:54:33;100509.78;;;17.50;62.75
77161;BME280;66135;0.000;0.000;2024-01-06T04:56:59;100511.81;;;17.48;62.77
77161;BME280;66135;0.000;0.000;2024-01-06T04:59:24;100517.22;;;17.48;62.92
77161;BME280;66135;0.000;0.000;2024-01-06T05:01:51;100525.34;;;17.48;62.95
77161;BME280;66135;0.000;0.000;2024-01-06T05:04:17;100535.31;;;17.47;62.75
77161;BME280;66135;0.000;0.000;2024-01-06T05:06:42;100530.94;;;17.46;62.62
77161;BME280;66135;0.000;0.000;2024-01-06T05:09:08;100537.50;;;17.44;62.62
77161;BME280;66135;0.000;0.000;2024-01-06T05:11:33;100529.38;;;17.44;62.62
77161;BME280;66135;0.000;0.000;2024-01-06T05:13:58;100533.97;;;17.43;62.71
77161;BME280;66135;0.000;0.000;2024-01-06T05:16:24;100533.13;;;17.43;63.00
77161;BME280;66135;0.000;0.000;2024-01-06T05:18:50;100548.53;;;17.42;62.62
77161;BME280;66135;0.000;0.000;2024-01-06T05:21:15;100547.66;;;17.42;62.75
77161;BME280;66135;0.000;0.000;2024-01-06T05:23:41;100548.72;;;17.41;62.82
77161;BME280;66135;0.000;0.000;2024-01-06T05:26:06;100547.03;;;17.40;62.83
77161;BME280;66135;0.000;0.000;2024-01-06T05:28:31;100546.19;;;17.39;62.85
77161;BME280;66135;0.000;0.000;2024-01-06T05:30:57;100548.88;;;17.39;62.82
77161;BME280;66135;0.000;0.000;2024-01-06T05:33:22;100555.66;;;17.35;62.99
77161;BME280;66135;0.000;0.000;2024-01-06T05:35:48;100554.81;;;17.35;62.73
77161;BME280;66135;0.000;0.000;2024-01-06T05:38:13;100556.53;;;17.36;62.84
77161;BME280;66135;0.000;0.000;2024-01-06T05:40:39;100558.38;;;17.35;62.70
77161;BME280;66135;0.000;0.000;2024-01-06T05:43:04;100565.00;;;17.33;63.12
77161;BME280;66135;0.000;0.000;2024-01-06T05:45:30;100558.38;;;17.35;62.89
77161;BME280;66135;0.000;0.000;2024-01-06T05:47:55;100569.22;;;17.35;62.70
77161;BME280;66135;0.000;0.000;2024-01-06T05:50:21;100571.25;;;17.33;62.94
77161;BME280;66135;0.000;0.000;2024-01-06T05:52:46;100572.94;;;17.34;62.87
77161;BME280;66135;0.000;0.000;2024-01-06T05:55:13;100585.44;;;17.35;63.00
77161;BME280;66135;0.000;0.000;2024-01-06T05:57:39;100570.72;;;17.38;62.73
77161;BME280;66135;0.000;0.000;2024-01-06T06:00:08;100580.53;;;17.39;62.91
77161;BME280;66135;0.000;0.000;2024-01-06T06:02:33;100586.97;;;17.38;63.64
77161;BME280;66135;0.000;0.000;2024-01-06T06:05:00;100577.16;;;17.37;63.67
77161;BME280;66135;0.000;0.000;2024-01-06T06:07:25;100586.50;;;17.34;63.51
77161;BME280;66135;0.000;0.000;2024-01-06T06:09:50;100592.91;;;17.33;63.40
77161;BME280;66135;0.000;0.000;2024-01-06T06:12:18;100597.81;;;17.30;63.78
77161;BME280;66135;0.000;0.000;2024-01-06T06:14:43;100597.81;;;17.30;63.48
77161;BME280;66135;0.000;0.000;2024-01-06T06:17:08;100608.66;;;17.30;63.10
77161;BME280;66135;0.000;0.000;2024-01-06T06:19:34;100610.53;;;17.29;63.21
77161;BME280;66135;0.000;0.000;2024-01-06T06:21:59;100612.56;;;17.27;62.94
77161;BME280;66135;0.000;0.000;2024-01-06T06:24:25;100609.00;;;17.27;63.24
77161;BME280;66135;0.000;0.000;2024-01-06T06:26:51;100629.00;;;17.26;63.18
77161;BME280;66135;0.000;0.000;2024-01-06T06:29:16;100622.72;;;17.25;63.13
77161;BME280;66135;0.000;0.000;2024-01-06T06:31:41;100627.09;;;17.26;62.61
77161;BME280;66135;0.000;0.000;2024-01-06T06:34:10;100634.41;;;17.26;63.06
77161;BME280;66135;0.000;0.000;2024-01-06T06:36:35;100629.19;;;17.24;63.21
77161;BME280;66135;0.000;0.000;2024-01-06T06:39:01;100631.88;;;17.24;63.07
77161;BME280;66135;0.000;0.000;2024-01-06T06:41:26;100632.22;;;17.21;63.33
77161;BME280;66135;0.000;0.000;2024-01-06T06:43:52;100643.22;;;17.20;63.36
77161;BME280;66135;0.000;0.000;2024-01-06T06:46:17;100650.47;;;17.19;63.11
77161;BME280;66135;0.000;0.000;2024-01-06T06:48:42;100658.59;;;17.19;62.99
77161;BME280;66135;0.000;0.000;2024-01-06T06:51:08;100658.78;;;17.18;63.14
77161;BME280;66135;0.000;0.000;2024-01-06T06:53:33;100660.66;;;17.17;62.66
77161;BME280;66135;0.000;0.000;2024-01-06T06:55:59;100664.88;;;17.20;62.68
77161;BME280;66135;0.000;0.000;2024-01-06T06:58:24;100667.75;;;17.18;62.82
77161;BME280;66135;0.000;0.000;2024-01-06T07:00:49;100678.56;;;17.18;62.42
77161;BME280;66135;0.000;0.000;2024-01-06T07:03:15;100671.47;;;17.25;62.33
77161;BME280;66135;0.000;0.000;2024-01-06T07:05:41;100675.66;;;17.36;62.16
77161;BME280;66135;0.000;0.000;2024-01-06T07:08:06;100682.25;;;17.41;62.13
77161;BME280;66135;0.000;0.000;2024-01-06T07:10:32;100694.78;;;17.50;62.35
77161;BME280;66135;0.000;0.000;2024-01-06T07:12:57;100689.69;;;17.55;62.16
77161;BME280;66135;0.000;0.000;2024-01-06T07:15:22;100702.69;;;17.60;61.95
77161;BME280;66135;0.000;0.000;2024-01-06T07:17:48;100702.63;;;17.68;61.71
77161;BME280;66135;0.000;0.000;2024-01-06T07:20:13;100691.44;;;17.79;61.66
77161;BME280;66135;0.000;0.000;2024-01-06T07:22:38;100697.34;;;17.82;61.90
77161;BME280;66135;0.000;0.000;2024-01-06T10:25:42;100967.09;;;18.80;62.12
77161;BME280;66135;0.000;0.000;2024-01-06T10:28:11;100962.72;;;18.79;62.31
77161;BME280;66135;0.000;0.000;2024-01-06T10:30:37;100963.91;;;18.76;62.42
77161;BME280;66135;0.000;0.000;2024-01-06T10:33:08;100965.94;;;18.74;62.14
77161;BME280;66135;0.000;0.000;2024-01-06T10:35:34;100960.50;;;18.74;62.51
77161;BME280;66135;0.000;0.000;2024-01-06T10:38:01;100967.16;;;18.72;62.43
77161;BME280;66135;0.000;0.000;2024-01-06T10:40:26;100960.00;;;18.71;62.54
77161;BME280;66135;0.000;0.000;2024-01-06T10:42:55;100970.03;;;18.70;62.74
77161;BME280;66135;0.000;0.000;2024-01-06T10:45:23;100973.94;;;18.68;62.81
77161;BME280;66135;0.000;0.000;2024-01-06T10:47:49;100974.97;;;18.67;62.54
77161;BME280;66135;0.000;0.000;2024-01-06T10:50:16;100974.31;;;18.65;62.63
77161;BME280;66135;0.000;0.000;2024-01-06T10:52:43;100977.19;;;18.63;62.51
77161;BME280;66135;0.000;0.000;2024-01-06T10:55:09;100979.22;;;18.61;62.43
77161;BME280;66135;0.000;0.000;2024-01-06T10:57:37;100981.28;;;18.59;62.41
77161;BME280;66135;0.000;0.000;2024-01-06T11:00:04;100987.06;;;18.56;62.64
77161;BME280;66135;0.000;0.000;2024-01-06T11:02:31;100980.09;;;18.54;62.55
77161;BME280;66135;0.000;0.000;2024-01-06T11:04:56;100992.16;;;18.51;62.47
77161;BME280;66135;0.000;0.000;2024-01-06T11:07:23;100989.75;;;18.48;62.56
77161;BME280;66135;0.000;0.000;2024-01-06T11:09:57;100989.25;;;18.45;62.73
77161;BME280;66135;0.000;0.000;2024-01-06T11:12:23;101003.00;;;18.43;62.63
77161;BME280;66135;0.000;0.000;2024-01-06T11:14:51;100990.81;;;18.39;62.48
77161;BME280;66135;0.000;0.000;2024-01-06T11:17:54;101001.78;;;18.38;62.79
77161;BME280;66135;0.000;0.000;2024-01-06T11:20:24;100994.19;;;18.33;62.92
77161;BME280;66135;0.000;0.000;2024-01-06T11:22:50;101007.94;;;18.32;62.87
77161;BME280;66135;0.000;0.000;2024-01-06T11:25:18;101009.09;;;18.29;62.81
77161;BME280;66135;0.000;0.000;2024-01-06T11:27:46;101003.00;;;18.27;62.77
77161;BME280;66135;0.000;0.000;2024-01-06T11:30:20;100998.97;;;18.23;62.97
77161;BME280;66135;0.000;0.000;2024-01-06T11:32:45;101001.84;;;18.22;62.77
77161;BME280;66135;0.000;0.000;2024-01-06T11:35:15;101003.88;;;18.20;62.86
77161;BME280;66135;0.000;0.000;2024-01-06T11:40:36;101012.84;;;18.20;62.78
77161;BME280;66135;0.000;0.000;2024-01-06T11:45:32;101005.06;;;18.17;62.63
77161;BME280;66135;0.000;0.000;2024-01-06T11:47:58;101005.06;;;18.17;62.74
77161;BME280;66135;0.000;0.000;2024-01-06T11:50:25;101007.75;;;18.17;62.88
77161;BME280;66135;0.000;0.000;2024-01-06T11:52:51;101009.78;;;18.15;62.66
77161;BME280;66135;0.000;0.000;2024-01-06T11:55:20;101007.09;;;18.15;62.59
77161;BME280;66135;0.000;0.000;2024-01-06T11:57:45;101005.06;;;18.17;62.81
77161;BME280;66135;0.000;0.000;2024-01-06T12:00:12;101008.44;;;18.19;63.67
77161;BME280;66135;0.000;0.000;2024-01-06T12:02:39;101012.84;;;18.20;63.62
77161;BME280;66135;0.000;0.000;2024-01-06T12:05:05;101002.16;;;18.19;63.59
77161;BME280;66135;0.000;0.000;2024-01-06T12:07:31;101007.41;;;18.20;64.02
77161;BME280;66135;0.000;0.000;2024-01-06T12:10:03;101005.06;;;18.17;64.10
77161;BME280;66135;0.000;0.000;2024-01-06T12:12:29;101002.53;;;18.16;64.00
77161;BME280;66135;0.000;0.000;2024-01-06T12:14:54;101004.53;;;18.14;63.97
77161;BME280;66135;0.000;0.000;2024-01-06T12:17:21;101005.75;;;18.11;64.18
77161;BME280;66135;0.000;0.000;2024-01-06T12:19:47;101008.47;;;18.11;64.13
77161;BME280;66135;0.000;0.000;2024-01-06T12:22:14;101010.50;;;18.09;64.41
77161;BME280;66135;0.000;0.000;2024-01-06T12:24:40;101008.63;;;18.10;64.40
77161;BME280;66135;0.000;0.000;2024-01-06T12:27:09;101011.50;;;18.08;64.23
77161;BME280;66135;0.000;0.000;2024-01-06T12:29:38;101010.50;;;18.09;64.49
77161;BME280;66135;0.000;0.000;2024-01-06T12:32:05;101016.41;;;18.05;64.36
77161;BME280;66135;0.000;0.000;2024-01-06T12:34:31;101015.91;;;18.01;63.88
77161;BME280;66135;0.000;0.000;2024-01-06T12:36:56;101016.41;;;17.96;63.52
77161;BME280;66135;0.000;0.000;2024-01-06T12:39:22;101013.03;;;17.94;63.77
77161;BME280;66135;0.000;0.000;2024-01-06T12:41:48;101014.06;;;17.93;63.87
77161;BME280;66135;0.000;0.000;2024-01-06T12:44:15;101008.97;;;17.90;63.96
77161;BME280;66135;0.000;0.000;2024-01-06T12:46:40;101012.88;;;17.88;63.88
77161;BME280;66135;0.000;0.000;2024-01-06T12:49:06;101011.50;;;17.84;63.83
77161;BME280;66135;0.000;0.000;2024-01-06T12:51:31;101020.66;;;17.83;63.96
77161;BME280;66135;0.000;0.000;2024-01-06T12:53:56;101022.84;;;17.79;63.53
77161;BME280;66135;0.000;0.000;2024-01-06T12:56:22;101014.91;;;17.78;63.89
77161;BME280;66135;0.000;0.000;2024-01-06T12:58:48;101019.28;;;17.79;63.88
77161;BME280;66135;0.000;0.000;2024-01-06T13:01:13;101023.84;;;17.78;63.93
77161;BME280;66135;0.000;0.000;2024-01-06T13:03:38;101027.94;;;17.74;63.82
77161;BME280;66135;0.000;0.000;2024-01-06T13:06:04;101015.91;;;17.77;63.70
77161;BME280;66135;0.000;0.000;2024-01-06T13:08:29;101026.41;;;17.72;63.88
77161;BME280;66135;0.000;0.000;2024-01-06T13:10:55;101026.56;;;17.70;63.65
77161;BME280;66135;0.000;0.000;2024-01-06T13:13:21;101029.44;;;17.69;63.62
77161;BME280;66135;0.000;0.000;2024-01-06T13:15:47;101031.31;;;17.68;63.98
77161;BME280;66135;0.000;0.000;2024-01-06T13:18:12;101033.50;;;17.65;63.79
77161;BME280;66135;0.000;0.000;2024-01-06T13:20:38;101032.81;;;17.63;63.67
77161;BME280;66135;0.000;0.000;2024-01-06T13:23:08;101035.53;;;17.63;63.88
77161;BME280;66135;0.000;0.000;2024-01-06T13:25:35;101050.09;;;17.62;63.75
77161;BME280;66135;0.000;0.000;2024-01-06T13:28:00;101047.38;;;17.62;63.69
77161;BME280;66135;0.000;0.000;2024-01-06T13:30:26;101048.38;;;17.61;63.57
77161;BME280;66135;0.000;0.000;2024-01-06T13:32:52;101052.13;;;17.60;63.43
77161;BME280;66135;0.000;0.000;2024-01-06T13:35:19;101059.38;;;17.59;63.61
77161;BME280;66135;0.000;0.000;2024-01-06T13:37:45;101061.94;;;17.61;63.47
77161;BME280;66135;0.000;0.000;2024-01-06T13:40:13;101062.44;;;17.56;63.56
77161;BME280;66135;0.000;0.000;2024-01-06T13:42:39;101060.75;;;17.55;63.55
77161;BME280;66135;0.000;0.000;2024-01-06T13:45:05;101071.44;;;17.57;63.49
77161;BME280;66135;0.000;0.000;2024-01-06T13:47:30;101071.44;;;17.57;63.45
77161;BME280;66135;0.000;0.000;2024-01-06T13:49:56;101059.91;;;17.55;63.48
77161;BME280;66135;0.000;0.000;2024-01-06T13:52:22;101065.31;;;17.55;63.55
77161;BME280;66135;0.000;0.000;2024-01-06T13:54:47;101070.91;;;17.53;63.50
77161;BME280;66135;0.000;0.000;2024-01-06T13:57:13;101073.97;;;17.50;63.46
77161;BME280;66135;0.000;0.000;2024-01-06T13:59:38;101074.78;;;17.51;63.48
77161;BME280;66135;0.000;0.000;2024-01-06T14:02:08;101065.81;;;17.50;63.44
77161;BME280;66135;0.000;0.000;2024-01-06T14:04:35;101075.97;;;17.48;63.53
77161;BME280;66135;0.000;0.000;2024-01-06T14:07:01;101077.81;;;17.48;63.63
77161;BME280;66135;0.000;0.000;2024-01-06T14:09:27;101085.94;;;17.48;63.40
77161;BME280;66135;0.000;0.000;2024-01-06T14:11:53;101083.56;;;17.45;63.48
77161;BME280;66135;0.000;0.000;2024-01-06T14:14:19;101095.38;;;17.44;63.13
77161;BME280;66135;0.000;0.000;2024-01-06T14:16:45;101092.66;;;17.44;63.35
77161;BME280;66135;0.000;0.000;2024-01-06T14:19:12;101098.09;;;17.44;63.43
77161;BME280;66135;0.000;0.000;2024-01-06T14:21:37;101099.97;;;17.43;63.47
77161;BME280;66135;0.000;0.000;2024-01-06T14:24:04;101100.63;;;17.45;63.23
77161;BME280;66135;0.000;0.000;2024-01-06T14:26:31;101103.06;;;17.48;63.37
77161;BME280;66135;0.000;0.000;2024-01-06T14:28:57;101101.34;;;17.47;63.55
77161;BME280;66135;0.000;0.000;2024-01-06T14:31:24;101106.59;;;17.49;63.46
77161;BME280;66135;0.000;0.000;2024-01-06T14:33:49;101108.31;;;17.50;63.72
77161;BME280;66135;0.000;0.000;2024-01-06T14:36:14;101115.41;;;17.51;63.53
77161;BME280;66135;0.000;0.000;2024-01-06T14:38:40;101099.31;;;17.49;63.75
77161;BME280;66135;0.000;0.000;2024-01-06T14:41:05;101110.16;;;17.49;63.87
77161;BME280;66135;0.000;0.000;2024-01-06T14:43:31;101121.84;;;17.50;63.75
77161;BME280;66135;0.000;0.000;2024-01-06T14:45:56;101119.16;;;17.50;63.92
77161;BME280;66135;0.000;0.000;2024-01-06T14:48:21;101122.72;;;17.50;63.96
77161;BME280;66135;0.000;0.000;2024-01-06T14:50:47;101124.22;;;17.53;64.17
77161;BME280;66135;0.000;0.000;2024-01-06T14:53:14;101130.66;;;17.52;64.14
77161;BME280;66135;0.000;0.000;2024-01-06T14:55:40;101140.81;;;17.50;63.94
77161;BME280;66135;0.000;0.000;2024-01-06T14:58:05;101148.06;;;17.49;64.16
77161;BME280;66135;0.000;0.000;2024-01-06T15:00:31;101136.56;;;17.47;64.48
77161;BME280;66135;0.000;0.000;2024-01-06T15:02:56;101141.81;;;17.49;64.41
77161;BME280;66135;0.000;0.000;2024-01-06T15:05:22;101143.69;;;17.48;64.27
77161;BME280;66135;0.000;0.000;2024-01-06T15:07:48;101149.94;;;17.49;64.46
77161;BME280;66135;0.000;0.000;2024-01-06T15:10:13;101150.94;;;17.48;64.33
77161;BME280;66135;0.000;0.000;2024-01-06T15:12:40;101148.56;;;17.45;64.20
77161;BME280;66135;0.000;0.000;2024-01-06T15:15:06;101163.63;;;17.47;64.53
77161;BME280;66135;0.000;0.000;2024-01-06T15:17:33;101180.75;;;17.48;64.51
77161;BME280;66135;0.000;0.000;2024-01-06T15:19:58;101167.22;;;17.48;64.52
77161;BME280;66135;0.000;0.000;2024-01-06T15:22:23;101169.91;;;17.48;64.29
77161;BME280;66135;0.000;0.000;2024-01-06T15:24:49;101172.47;;;17.49;64.51
77161;BME280;66135;0.000;0.000;2024-01-06T15:27:16;101183.47;;;17.48;64.15
77161;BME280;66135;0.000;0.000;2024-01-06T15:29:41;101188.72;;;17.49;64.47
77161;BME280;66135;0.000;0.000;2024-01-06T15:32:06;101186.84;;;17.50;64.59
77161;BME280;66135;0.000;0.000;2024-01-06T15:34:32;101195.97;;;17.49;64.23
77161;BME280;66135;0.000;0.000;2024-01-06T15:36:58;101197.31;;;17.45;64.63
77161;BME280;66135;0.000;0.000;2024-01-06T15:39:24;101204.56;;;17.44;64.25
77161;BME280;66135;0.000;0.000;2024-01-06T15:41:49;101203.72;;;17.44;64.53
77161;BME280;66135;0.000;0.000;2024-01-06T15:44:16;101199.47;;;17.41;64.42
77161;BME280;66135;0.000;0.000;2024-01-06T15:46:42;101207.44;;;17.43;64.38
77161;BME280;66135;0.000;0.000;2024-01-06T15:49:08;101206.41;;;17.44;64.42
77161;BME280;66135;0.000;0.000;2024-01-06T15:51:33;101213.03;;;17.41;64.37
77161;BME280;66135;0.000;0.000;2024-01-06T15:53:59;101212.31;;;17.39;64.26
77161;BME280;66135;0.000;0.000;2024-01-06T15:56:25;101217.91;;;17.38;64.18
77161;BME280;66135;0.000;0.000;2024-01-06T15:58:50;101217.06;;;17.37;63.99